createdAt,value
2022-10-05T00:00:19.128Z,5.72
2022-10-05T00:02:46.755Z,6.03
2022-10-05T00:05:34.292Z,6.22
2022-10-05T00:08:22.854Z,6.15
2022-10-05T00:10:50.181Z,5.95
2022-10-05T00:13:20.944Z,5.88
2022-10-05T00:15:49.346Z,5.45
2022-10-05T00:18:18.342Z,6.00
2022-10-05T00:20:46.736Z,6.00
2022-10-05T00:23:20.949Z,5.68
2022-10-05T00:25:47.875Z,6.13
2022-10-05T00:28:29.209Z,5.50
2022-10-05T00:30:57.425Z,5.47
2022-10-05T00:33:24.348Z,5.15
2022-10-05T00:35:51.357Z,6.05
2022-10-05T00:38:17.898Z,5.80
2022-10-05T00:40:56.200Z,6.35
2022-10-05T00:43:34.973Z,5.47
2022-10-05T00:46:20.325Z,5.90
2022-10-05T00:49:15.570Z,5.55
2022-10-05T00:51:52.185Z,5.07
2022-10-05T00:54:27.755Z,6.25
2022-10-05T01:01:12.973Z,5.50
2022-10-05T01:04:01.398Z,5.63
2022-10-05T01:07:13.198Z,4.65
2022-10-05T01:13:47.935Z,4.80
2022-10-05T01:16:28.987Z,5.30
2022-10-05T01:19:11.543Z,5.07
2022-10-05T01:21:52.776Z,4.80
2022-10-05T01:24:48.820Z,4.82
2022-10-05T01:27:33.869Z,4.60
2022-10-05T01:30:12.269Z,5.25
2022-10-05T01:32:45.643Z,4.93
2022-10-05T01:35:41.320Z,5.18
2022-10-05T01:38:32.420Z,5.43
2022-10-05T01:41:11.908Z,5.07
2022-10-05T01:43:48.237Z,5.40
2022-10-05T01:46:28.563Z,5.05
2022-10-05T01:48:55.981Z,5.28
2022-10-05T01:51:31.960Z,5.18
2022-10-05T01:54:16.605Z,4.90
2022-10-05T01:56:46.625Z,5.50
2022-10-05T01:59:36.561Z,5.60
2022-10-05T02:02:08.736Z,5.00
2022-10-05T02:05:01.418Z,4.82
2022-10-05T02:07:54.886Z,5.28
2022-10-05T02:10:31.004Z,5.60
2022-10-05T02:13:03.342Z,5.05
2022-10-05T02:15:44.044Z,5.00
2022-10-05T02:18:21.845Z,5.30
2022-10-05T02:20:49.925Z,4.97
2022-10-05T02:23:28.377Z,5.25
2022-10-05T02:25:56.569Z,5.47
2022-10-05T02:28:31.443Z,5.80
2022-10-05T02:31:08.887Z,5.60
2022-10-05T02:33:36.033Z,5.15
2022-10-05T02:36:35.622Z,4.45
2022-10-05T02:41:51.285Z,5.50
2022-10-05T02:44:40.953Z,5.03
2022-10-05T02:47:17.699Z,4.82
2022-10-05T02:49:44.219Z,5.18
2022-10-05T02:52:25.991Z,5.55
2022-10-05T02:55:49.487Z,5.43
2022-10-05T02:58:24.869Z,5.72
2022-10-05T03:01:03.236Z,5.05
2022-10-05T03:03:39.360Z,5.32
2022-10-05T03:06:20.639Z,5.38
2022-10-05T03:08:57.617Z,5.70
2022-10-05T03:12:00.924Z,5.70
2022-10-05T03:14:57.142Z,5.43
2022-10-05T03:17:34.875Z,5.78
2022-10-05T03:20:12.409Z,5.78
2022-10-05T03:22:49.982Z,5.75
2022-10-05T03:25:21.393Z,5.53
2022-10-05T03:27:54.093Z,5.65
2022-10-05T03:30:23.805Z,5.43
2022-10-05T03:33:26.003Z,6.13
2022-10-05T03:36:11.856Z,5.47
2022-10-05T03:39:00.502Z,5.53
2022-10-05T03:41:42.878Z,5.75
2022-10-05T03:44:27.861Z,5.95
2022-10-05T03:47:16.781Z,5.72
2022-10-05T03:49:56.941Z,5.55
2022-10-05T03:52:31.547Z,6.45
2022-10-05T03:55:05.531Z,5.80
2022-10-05T03:57:38.747Z,6.50
2022-10-05T04:00:13.549Z,6.53
2022-10-05T04:03:07.817Z,5.93
2022-10-05T04:05:47.036Z,5.97
2022-10-05T04:08:47.896Z,6.45
2022-10-05T04:11:44.532Z,6.10
2022-10-05T04:14:20.577Z,6.13
2022-10-05T04:16:52.059Z,6.47
2022-10-05T04:19:32.605Z,6.40
2022-10-05T04:22:03.681Z,6.30
2022-10-05T04:24:58.875Z,5.82
2022-10-05T04:27:39.156Z,6.22
2022-10-05T04:30:12.593Z,6.32
2022-10-05T04:32:55.605Z,6.72
2022-10-05T04:36:11.117Z,6.60
2022-10-05T04:39:06.031Z,6.20
2022-10-05T04:41:55.735Z,6.07
2022-10-05T04:44:35.868Z,6.47
2022-10-05T04:47:21.260Z,6.45
2022-10-05T04:50:26.371Z,6.38
2022-10-05T04:53:54.357Z,6.13
2022-10-05T04:56:41.428Z,6.60
2022-10-05T04:59:46.026Z,6.63
2022-10-05T05:02:39.551Z,6.78
2022-10-05T05:05:27.193Z,6.63
2022-10-05T05:08:16.635Z,6.15
2022-10-05T05:10:49.253Z,5.85
2022-10-05T05:13:34.246Z,6.38
2022-10-05T05:16:20.108Z,6.57
2022-10-05T05:19:07.098Z,6.53
2022-10-05T05:21:52.937Z,5.65
2022-10-05T05:24:41.134Z,6.35
2022-10-05T05:27:34.685Z,6.63
2022-10-05T05:30:15.030Z,6.65
2022-10-05T05:33:06.457Z,6.28
2022-10-05T05:35:44.850Z,6.78
2022-10-05T05:38:30.873Z,6.63
2022-10-05T05:41:17.045Z,7.03
2022-10-05T05:44:14.410Z,6.20
2022-10-05T05:47:03.589Z,6.22
2022-10-05T05:49:46.300Z,6.97
2022-10-05T05:52:22.183Z,6.45
2022-10-05T05:54:58.262Z,6.63
2022-10-05T05:57:34.233Z,6.53
2022-10-05T06:00:20.131Z,6.38
2022-10-05T06:03:18.977Z,6.72
2022-10-05T06:05:54.788Z,6.05
2022-10-05T06:08:49.537Z,6.57
2022-10-05T06:11:55.763Z,6.25
2022-10-05T06:15:02.537Z,6.68
2022-10-05T06:17:50.287Z,6.90
2022-10-05T06:20:28.824Z,6.20
2022-10-05T06:23:00.442Z,5.88
2022-10-05T06:25:35.106Z,6.00
2022-10-05T06:28:13.012Z,6.60
2022-10-05T06:31:10.261Z,6.80
2022-10-05T06:33:45.660Z,5.60
2022-10-05T06:39:37.765Z,6.32
2022-10-05T06:42:34.210Z,6.90
2022-10-05T06:45:53.184Z,6.55
2022-10-05T06:48:55.799Z,6.40
2022-10-05T06:51:37.926Z,6.15
2022-10-05T06:54:25.786Z,6.43
2022-10-05T06:57:19.394Z,6.03
2022-10-05T07:00:01.590Z,6.13
2022-10-05T07:02:53.641Z,7.05
2022-10-05T07:05:34.598Z,6.32
2022-10-05T07:08:07.287Z,6.57
2022-10-05T07:11:11.536Z,6.90
2022-10-05T07:13:48.540Z,6.80
2022-10-05T07:16:32.675Z,6.47
2022-10-05T07:19:29.251Z,6.22
2022-10-05T07:22:34.570Z,6.78
2022-10-05T07:25:19.010Z,6.53
2022-10-05T07:28:06.855Z,5.72
2022-10-05T07:30:58.844Z,6.43
2022-10-05T07:33:38.828Z,5.75
2022-10-05T07:36:54.643Z,5.97
2022-10-05T07:39:58.412Z,6.05
2022-10-05T07:42:48.765Z,6.30
2022-10-05T07:45:45.955Z,7.07
2022-10-05T07:49:03.326Z,6.32
2022-10-05T07:51:38.993Z,5.90
2022-10-05T07:54:27.404Z,6.00
2022-10-05T07:57:13.269Z,6.25
2022-10-05T07:59:55.441Z,6.22
2022-10-05T08:02:48.048Z,6.30
2022-10-05T08:05:20.077Z,6.70
2022-10-05T08:07:52.205Z,6.05
2022-10-05T08:10:30.103Z,6.90
2022-10-05T08:13:30.952Z,6.78
2022-10-05T08:16:03.135Z,6.47
2022-10-05T08:19:07.176Z,6.18
2022-10-05T08:21:42.279Z,6.38
2022-10-05T08:24:35.391Z,6.35
2022-10-05T08:27:23.476Z,6.15
2022-10-05T08:30:02.974Z,6.53
2022-10-05T08:32:37.949Z,6.53
2022-10-05T08:35:25.606Z,6.25
2022-10-05T08:37:52.997Z,6.50
2022-10-05T08:40:21.453Z,6.53
2022-10-05T08:43:06.447Z,6.50
2022-10-05T08:45:38.799Z,6.68
2022-10-05T08:48:38.682Z,6.72
2022-10-05T08:51:22.745Z,6.30
2022-10-05T08:54:23.299Z,6.60
2022-10-05T08:57:06.462Z,6.70
2022-10-05T08:59:53.429Z,6.07
2022-10-05T09:02:42.957Z,5.95
2022-10-05T09:05:45.959Z,6.90
2022-10-05T09:08:47.937Z,6.63
2022-10-05T09:11:37.242Z,6.53
2022-10-05T09:14:18.824Z,6.35
2022-10-05T09:17:23.134Z,7.15
2022-10-05T09:19:59.763Z,6.63
2022-10-05T09:22:37.906Z,6.45
2022-10-05T09:25:51.821Z,6.57
2022-10-05T09:28:31.666Z,6.97
2022-10-05T09:31:06.954Z,5.68
2022-10-05T09:33:48.914Z,6.45
2022-10-05T09:36:36.739Z,5.97
2022-10-05T09:39:35.620Z,5.88
2022-10-05T09:42:29.995Z,6.18
2022-10-05T09:45:24.397Z,6.32
2022-10-05T09:48:15.928Z,6.50
2022-10-05T09:51:15.121Z,5.88
2022-10-05T09:54:06.426Z,6.15
2022-10-05T09:56:56.170Z,6.28
2022-10-05T10:00:00.638Z,7.18
2022-10-05T10:02:52.337Z,6.70
2022-10-05T10:05:36.387Z,6.65
2022-10-05T10:08:32.194Z,7.05
2022-10-05T10:11:07.477Z,7.10
2022-10-05T10:13:55.801Z,7.15
2022-10-05T10:16:40.918Z,7.55
2022-10-05T10:19:16.470Z,7.13
2022-10-05T10:22:17.159Z,6.85
2022-10-05T10:25:24.899Z,6.93
2022-10-05T10:28:32.110Z,6.88
2022-10-05T10:31:25.159Z,7.18
2022-10-05T10:34:09.152Z,6.32
2022-10-05T10:37:17.545Z,6.45
2022-10-05T10:40:23.341Z,6.15
2022-10-05T10:43:09.837Z,6.63
2022-10-05T10:46:07.504Z,6.28
2022-10-05T10:49:06.627Z,6.25
2022-10-05T10:52:05.574Z,5.90
2022-10-05T10:55:01.370Z,5.82
2022-10-05T10:57:49.412Z,6.13
2022-10-05T11:00:46.908Z,5.25
2022-10-05T11:03:33.471Z,5.03
2022-10-05T11:06:25.593Z,5.82
2022-10-05T11:09:10.910Z,5.20
2022-10-05T11:12:19.524Z,5.28
2022-10-05T11:15:08.414Z,5.20
2022-10-05T11:18:12.777Z,5.15
2022-10-05T11:21:02.723Z,5.28
2022-10-05T11:23:29.197Z,4.65
2022-10-05T11:26:17.674Z,5.10
2022-10-05T11:29:32.536Z,4.60
2022-10-05T11:32:20.468Z,5.18
2022-10-05T11:35:15.143Z,5.10
2022-10-05T11:37:59.752Z,4.70
2022-10-05T11:43:18.771Z,4.43
2022-10-05T11:45:45.184Z,5.10
2022-10-05T11:48:20.247Z,4.85
2022-10-05T11:51:08.598Z,4.93
2022-10-05T11:54:18.282Z,4.57
2022-10-05T11:56:54.509Z,4.68
2022-10-05T11:59:26.711Z,4.63
2022-10-05T12:01:53.150Z,4.75
2022-10-05T12:04:41.003Z,5.10
2022-10-05T12:07:39.190Z,4.80
2022-10-05T12:10:33.274Z,5.25
2022-10-05T12:13:19.311Z,5.22
2022-10-05T12:15:53.566Z,4.72
2022-10-05T12:18:29.992Z,5.55
2022-10-05T12:21:06.140Z,5.60
2022-10-05T12:23:41.830Z,5.80
2022-10-05T12:26:14.852Z,6.00
2022-10-05T12:28:47.296Z,5.63
2022-10-05T12:31:40.254Z,5.30
2022-10-05T12:34:22.768Z,4.97
2022-10-05T12:37:05.175Z,5.15
2022-10-05T12:39:56.621Z,4.97
2022-10-05T12:42:41.486Z,4.45
2022-10-05T12:45:20.531Z,4.55
2022-10-05T12:47:54.026Z,4.80
2022-10-05T12:50:30.632Z,5.10
2022-10-05T12:53:31.247Z,4.65
2022-10-05T12:56:15.334Z,4.32
2022-10-05T12:58:51.853Z,4.18
2022-10-05T13:01:39.951Z,4.20
2022-10-05T13:04:38.405Z,4.88
2022-10-05T13:07:28.503Z,4.75
2022-10-05T13:10:44.020Z,5.18
2022-10-05T13:16:04.798Z,5.75
2022-10-05T13:18:31.395Z,5.60
2022-10-05T13:21:06.904Z,5.57
2022-10-05T13:23:45.080Z,5.53
2022-10-05T13:26:25.815Z,5.65
2022-10-05T13:29:03.351Z,5.13
2022-10-05T13:31:43.536Z,4.82
2022-10-05T13:34:22.467Z,4.68
2022-10-05T13:37:03.457Z,4.72
2022-10-05T13:39:53.103Z,4.32
2022-10-05T13:42:35.677Z,4.30
2022-10-05T13:45:18.816Z,4.10
2022-10-05T13:48:17.046Z,4.00
2022-10-05T13:51:09.797Z,3.78
2022-10-05T13:53:49.896Z,3.63
2022-10-05T13:56:31.102Z,3.53
2022-10-05T13:59:23.055Z,3.50
2022-10-05T14:02:00.737Z,3.60
2022-10-05T14:04:30.325Z,3.47
2022-10-05T14:07:14.017Z,3.40
2022-10-05T14:09:48.146Z,3.38
2022-10-05T14:12:20.449Z,3.40
2022-10-05T14:14:55.357Z,3.47
2022-10-05T14:17:33.984Z,3.03
2022-10-05T14:20:03.345Z,3.25
2022-10-05T14:22:30.044Z,3.53
2022-10-05T14:25:02.387Z,3.22
2022-10-05T14:27:33.705Z,3.40
2022-10-05T14:30:12.118Z,3.33
2022-10-05T14:33:06.713Z,3.38
2022-10-05T14:35:52.105Z,3.17
2022-10-05T14:38:29.328Z,2.80
2022-10-05T14:41:15.962Z,3.40
2022-10-05T14:44:03.989Z,3.17
2022-10-05T14:46:32.791Z,2.80
2022-10-05T14:49:29.109Z,2.88
2022-10-05T14:51:56.606Z,3.10
2022-10-05T14:54:35.142Z,3.22
2022-10-05T14:57:12.522Z,4.05
2022-10-05T14:59:45.930Z,3.17
2022-10-05T15:02:37.299Z,3.28
2022-10-05T15:05:15.217Z,3.22
2022-10-05T15:07:45.235Z,3.00
2022-10-05T15:10:40.538Z,6.63
2022-10-05T15:13:14.256Z,5.72
2022-10-05T15:15:53.899Z,4.85
2022-10-05T15:18:27.245Z,4.18
2022-10-05T15:21:23.815Z,3.75
2022-10-05T15:23:57.445Z,3.95
2022-10-05T15:26:53.002Z,4.00
2022-10-05T15:29:55.561Z,3.60
2022-10-05T15:32:44.022Z,3.30
2022-10-05T15:35:29.461Z,3.58
2022-10-05T15:38:13.228Z,4.00
2022-10-05T15:40:43.272Z,3.45
2022-10-05T15:43:17.526Z,3.50
2022-10-05T15:48:49.238Z,3.55
2022-10-05T15:51:40.705Z,3.22
2022-10-05T15:54:41.704Z,3.38
2022-10-05T15:57:33.641Z,3.65
2022-10-05T16:00:07.714Z,3.60
2022-10-05T16:05:40.236Z,3.58
2022-10-05T16:08:34.918Z,3.10
2022-10-05T16:11:04.728Z,3.03
2022-10-05T16:13:50.357Z,3.05
2022-10-05T16:16:28.785Z,3.40
2022-10-05T16:19:14.438Z,3.28
2022-10-05T16:21:54.030Z,3.10
2022-10-05T16:24:49.241Z,3.08
2022-10-05T16:27:41.556Z,3.40
2022-10-05T16:30:16.620Z,3.30
2022-10-05T16:33:02.325Z,3.20
2022-10-05T16:35:38.917Z,3.25
2022-10-05T16:38:26.828Z,3.50
2022-10-05T16:41:28.819Z,4.57
2022-10-05T16:44:09.989Z,4.60
2022-10-05T16:46:42.822Z,4.18
2022-10-05T16:49:29.028Z,5.18
2022-10-05T16:51:57.851Z,5.32
2022-10-05T16:54:24.382Z,6.10
2022-10-05T16:57:12.072Z,5.32
2022-10-05T16:59:47.560Z,5.53
2022-10-05T17:02:46.563Z,4.97
2022-10-05T17:05:16.208Z,4.10
2022-10-05T17:08:01.312Z,4.18
2022-10-05T17:10:41.886Z,3.75
2022-10-05T17:13:13.516Z,3.90
2022-10-05T17:16:17.891Z,3.70
2022-10-05T17:19:09.233Z,3.30
2022-10-05T17:22:03.482Z,3.25
2022-10-05T17:25:09.307Z,6.57
2022-10-05T17:27:55.557Z,4.85
2022-10-05T17:30:58.690Z,5.20
2022-10-05T17:33:28.967Z,4.70
2022-10-05T17:36:12.376Z,6.20
2022-10-05T17:38:46.920Z,6.63
2022-10-05T17:41:30.109Z,6.57
2022-10-05T17:44:20.971Z,7.97
2022-10-05T17:46:59.117Z,9.00
2022-10-05T17:49:38.198Z,8.77
2022-10-05T17:52:41.026Z,8.80
2022-10-05T17:55:38.327Z,6.50
2022-10-05T17:58:23.766Z,5.78
2022-10-05T18:01:00.595Z,5.00
2022-10-05T18:03:42.846Z,5.07
2022-10-05T18:06:29.431Z,4.53
2022-10-05T18:09:22.526Z,3.83
2022-10-05T18:12:11.009Z,3.95
2022-10-05T18:15:01.162Z,4.15
2022-10-05T18:17:47.111Z,3.90
2022-10-05T18:20:34.916Z,3.30
2022-10-05T18:23:07.398Z,3.90
2022-10-05T18:25:40.184Z,3.80
2022-10-05T18:28:29.071Z,4.38
2022-10-05T18:31:04.285Z,4.05
2022-10-05T18:33:37.897Z,3.90
2022-10-05T18:36:33.105Z,3.58
2022-10-05T18:39:40.912Z,4.10
2022-10-05T18:42:33.323Z,3.97
2022-10-05T18:45:22.542Z,3.60
2022-10-05T18:48:11.550Z,3.85
2022-10-05T18:50:51.398Z,4.10
2022-10-05T18:53:44.889Z,3.85
2022-10-05T18:56:48.271Z,4.10
2022-10-05T18:59:40.527Z,3.60
2022-10-05T19:02:20.140Z,3.67
2022-10-05T19:05:35.820Z,4.70
2022-10-05T19:08:25.109Z,4.60
2022-10-05T19:11:01.604Z,4.28
2022-10-05T19:13:34.898Z,3.67
2022-10-05T19:16:34.999Z,3.60
2022-10-05T19:19:16.609Z,3.97
2022-10-05T19:22:04.892Z,4.38
2022-10-05T19:24:37.532Z,4.35
2022-10-05T19:27:22.875Z,3.78
2022-10-05T19:30:13.758Z,3.88
2022-10-05T19:32:56.153Z,4.28
2022-10-05T19:36:02.074Z,3.80
2022-10-05T19:38:34.401Z,4.18
2022-10-05T19:41:22.524Z,3.83
2022-10-05T19:44:07.473Z,3.97
2022-10-05T19:47:10.690Z,4.05
2022-10-05T19:49:47.732Z,3.83
2022-10-05T19:52:50.255Z,4.30
2022-10-05T19:55:26.333Z,3.80
2022-10-05T19:57:55.216Z,4.70
2022-10-05T20:00:33.883Z,3.65
2022-10-05T20:03:18.886Z,4.32
2022-10-05T20:05:45.745Z,4.45
2022-10-05T20:08:17.429Z,4.22
2022-10-05T20:10:44.868Z,3.85
2022-10-05T20:13:20.598Z,4.00
2022-10-05T20:16:45.064Z,3.72
2022-10-05T20:19:53.424Z,3.50
2022-10-05T20:22:22.854Z,3.78
2022-10-05T20:24:53.683Z,3.40
2022-10-05T20:27:42.247Z,3.85
2022-10-05T20:30:11.972Z,3.58
2022-10-05T20:32:38.663Z,4.07
2022-10-05T20:35:06.896Z,3.90
2022-10-05T20:37:33.855Z,3.65
2022-10-05T20:40:00.389Z,3.80
2022-10-05T20:42:26.949Z,3.60
2022-10-05T20:44:56.814Z,3.92
2022-10-05T20:47:24.807Z,3.47
2022-10-05T20:49:53.329Z,4.03
2022-10-05T20:52:20.915Z,3.30
2022-10-05T20:54:47.976Z,3.42
2022-10-05T20:57:14.585Z,3.78
2022-10-05T20:59:41.140Z,3.63
2022-10-05T21:02:07.691Z,3.55
2022-10-05T21:04:41.424Z,3.95
2022-10-05T21:07:08.503Z,3.50
2022-10-05T21:09:37.895Z,3.28
2022-10-05T21:12:04.751Z,3.35
2022-10-05T21:14:34.137Z,3.42
2022-10-05T21:17:01.923Z,3.42
2022-10-05T21:19:29.893Z,3.53
2022-10-05T21:21:59.257Z,3.45
2022-10-05T21:24:25.910Z,3.22
2022-10-05T21:31:12.111Z,3.40
2022-10-05T21:33:38.694Z,3.30
2022-10-05T21:36:05.381Z,3.08
2022-10-05T21:38:31.974Z,3.10
2022-10-05T21:40:58.651Z,2.90
2022-10-05T21:43:25.669Z,3.08
2022-10-05T21:45:54.706Z,2.92
2022-10-05T21:48:22.288Z,3.20
2022-10-05T21:50:48.781Z,2.80
2022-10-05T21:53:18.380Z,2.97
2022-10-05T21:55:48.884Z,2.67
2022-10-05T21:58:17.147Z,2.95
2022-10-05T22:00:43.724Z,2.80
2022-10-05T22:03:10.590Z,2.85
2022-10-05T22:05:37.117Z,3.08
2022-10-05T22:08:04.365Z,2.90
2022-10-05T22:10:32.234Z,2.50
2022-10-05T22:13:03.705Z,2.83
2022-10-05T22:15:31.396Z,2.78
2022-10-05T22:17:59.678Z,2.92
2022-10-05T22:20:26.874Z,2.80
2022-10-05T22:22:53.970Z,2.70
2022-10-05T22:25:21.558Z,2.67
2022-10-05T22:27:49.671Z,2.47
2022-10-05T22:30:16.439Z,2.70
2022-10-05T22:32:43.911Z,2.50
2022-10-05T22:35:11.725Z,2.70
2022-10-05T22:37:38.678Z,2.40
2022-10-05T22:40:07.512Z,2.15
2022-10-05T22:42:34.638Z,2.50
2022-10-05T22:45:01.200Z,2.30
2022-10-05T22:47:27.764Z,2.58
2022-10-05T22:49:55.126Z,2.63
2022-10-05T22:52:21.590Z,2.20
2022-10-05T22:54:48.222Z,2.42
2022-10-05T22:57:14.959Z,2.70
2022-10-05T22:59:41.851Z,2.90
2022-10-05T23:02:08.421Z,2.28
2022-10-05T23:04:34.911Z,2.53
2022-10-05T23:07:01.575Z,2.60
2022-10-05T23:09:28.070Z,2.22
2022-10-05T23:11:54.560Z,2.63
2022-10-05T23:14:21.259Z,2.45
2022-10-05T23:16:47.952Z,2.50
2022-10-05T23:19:14.511Z,2.33
2022-10-05T23:21:41.376Z,2.10
2022-10-05T23:24:08.380Z,2.33
2022-10-05T23:26:34.966Z,2.67
2022-10-05T23:29:01.515Z,2.50
2022-10-05T23:31:30.756Z,2.60
2022-10-05T23:33:57.253Z,2.33
2022-10-05T23:36:32.173Z,2.30
2022-10-05T23:38:59.962Z,2.70
2022-10-05T23:41:26.973Z,2.60
2022-10-05T23:43:55.152Z,2.58
2022-10-05T23:46:22.135Z,2.38
2022-10-05T23:48:50.323Z,2.55
2022-10-05T23:51:17.566Z,2.55
2022-10-05T23:53:44.517Z,2.40
